Time;durP1;ratioP1;P1;durP2;ratioP2;P2;SDS_P1;SDS_P2;PMS_P1;PMS_P2;Temp;Humidity;BMP_temperature;BMP_pressure;BME280_temperature;BME280_humidity;BME280_pressure;Samples;Min_cycle;Max_cycle;Signal;HPM_P1;HPM_P2
2021/10/25 00:00:31;;;;;;;3.73;2.10;;;;;;;-145.69;100.00;73034.41;5155973;27;20734;-77
2021/10/25 00:02:57;;;;;;;3.10;2.27;;;;;;;-145.69;100.00;73018.50;5154239;27;20266;-78
2021/10/25 00:05:24;;;;;;;3.90;2.20;;;;;;;-145.69;100.00;73022.47;5150001;27;20223;-78
2021/10/25 00:07:51;;;;;;;5.47;2.63;;;;;;;-145.69;100.00;73014.50;5135531;27;20758;-78
2021/10/25 00:10:19;;;;;;;4.10;2.00;;;;;;;-145.69;100.00;73028.44;5134252;27;20208;-78
2021/10/25 00:12:45;;;;;;;6.20;2.30;;;;;;;-145.69;100.00;73008.53;5135128;27;20541;-78
2021/10/25 00:15:12;;;;;;;3.83;2.03;;;;;;;-145.69;100.00;73022.47;5135117;27;20678;-78
2021/10/25 00:17:39;;;;;;;3.53;1.60;;;;;;;-145.69;100.00;73018.50;5137546;27;20196;-78
2021/10/25 00:20:09;;;;;;;4.27;1.90;;;;;;;-145.69;100.00;73026.44;5134796;27;20237;-77
2021/10/25 00:22:41;;;;;;;2.60;1.60;;;;;;;-145.69;100.00;73010.53;5134967;27;20226;-78
2021/10/25 00:25:08;;;;;;;2.33;1.70;;;;;;;-145.69;100.00;73006.53;5135098;27;20193;-78
2021/10/25 00:27:36;;;;;;;5.73;1.60;;;;;;;-145.69;100.00;72998.59;5134414;27;20229;-79
2021/10/25 00:30:03;;;;;;;7.00;2.20;;;;;;;-145.69;100.00;72988.63;5134806;27;20654;-77
2021/10/25 00:32:30;;;;;;;4.00;1.80;;;;;;;-145.69;100.00;72990.63;5134823;27;20203;-77
2021/10/25 00:34:56;;;;;;;3.37;1.73;;;;;;;-145.69;100.00;72986.63;5135002;27;20250;-78
2021/10/25 00:37:23;;;;;;;6.30;1.90;;;;;;;-145.69;100.00;72988.63;5134052;27;20201;-78
2021/10/25 00:39:49;;;;;;;2.97;1.70;;;;;;;-145.69;100.00;72980.66;5134679;27;20197;-78
2021/10/25 00:42:16;;;;;;;3.73;1.50;;;;;;;-145.69;100.00;72986.63;5134482;27;20647;-78
2021/10/25 00:44:44;;;;;;;2.10;1.47;;;;;;;-145.69;100.00;72988.63;5134504;27;20201;-77
2021/10/25 00:47:11;;;;;;;2.43;1.50;;;;;;;-145.69;100.00;72980.66;5133965;27;20249;-77
2021/10/25 00:49:37;;;;;;;2.97;1.50;;;;;;;-145.69;100.00;72982.66;5134356;27;20245;-76
2021/10/25 00:52:04;;;;;;;2.10;1.40;;;;;;;-145.69;100.00;72982.66;5134133;27;20235;-78
2021/10/25 00:54:34;;;;;;;2.80;1.33;;;;;;;-145.69;100.00;72982.66;5134265;27;20196;-78
2021/10/25 00:57:03;;;;;;;2.90;1.40;;;;;;;-145.69;100.00;72988.63;5133922;27;20189;-77
2021/10/25 00:59:29;;;;;;;2.90;1.40;;;;;;;-145.69;100.00;72994.59;5134381;27;20236;-78
2021/10/25 01:01:57;;;;;;;1.60;1.20;;;;;;;-145.69;100.00;73010.53;5134027;27;20201;-78
2021/10/25 01:04:23;;;;;;;5.50;1.50;;;;;;;-145.69;100.00;73010.53;5133932;27;20201;-77
2021/10/25 01:06:50;;;;;;;3.13;1.17;;;;;;;-145.69;100.00;73008.53;5133813;27;20196;-76
2021/10/25 01:09:18;;;;;;;5.67;1.30;;;;;;;-145.69;100.00;73012.53;5133823;27;20235;-77
2021/10/25 01:11:48;;;;;;;2.97;1.17;;;;;;;-145.69;100.00;72998.59;5134318;28;20208;-77
2021/10/25 01:14:14;;;;;;;4.53;1.20;;;;;;;-145.69;100.00;73000.56;5134061;28;20258;-77
2021/10/25 01:16:41;;;;;;;1.83;1.13;;;;;;;-145.69;100.00;73004.56;5134343;27;20593;-77
2021/10/25 01:19:09;;;;;;;3.20;1.13;;;;;;;-145.69;100.00;72990.63;5134113;28;20203;-77
2021/10/25 01:21:37;;;;;;;1.40;1.10;;;;;;;-145.69;100.00;72994.59;5135548;27;20203;-77
2021/10/25 01:24:04;;;;;;;3.80;1.20;;;;;;;-145.69;100.00;72986.63;5137886;27;20753;-77
2021/10/25 01:26:31;;;;;;;2.87;1.30;;;;;;;-145.69;100.00;72972.72;5138047;27;20202;-77
2021/10/25 01:28:57;;;;;;;2.00;1.20;;;;;;;-145.69;100.00;72982.66;5137985;27;20232;-77
2021/10/25 01:31:24;;;;;;;2.37;1.23;;;;;;;-145.69;100.00;72994.59;5138305;27;20196;-77
2021/10/25 01:33:53;;;;;;;4.60;1.23;;;;;;;-145.69;100.00;72990.63;5138086;27;20205;-77
2021/10/25 01:36:20;;;;;;;1.80;1.30;;;;;;;-145.69;100.00;72996.59;5138023;27;20193;-76
2021/10/25 01:38:48;;;;;;;4.47;1.10;;;;;;;-145.69;100.00;72988.63;5138115;27;20201;-77
2021/10/25 01:41:15;;;;;;;2.27;1.03;;;;;;;-145.69;100.00;72970.72;5137573;27;20550;-77
2021/10/25 01:43:42;;;;;;;1.30;1.20;;;;;;;-145.69;100.00;72966.72;5137990;27;20201;-76
2021/10/25 01:46:11;;;;;;;2.30;1.20;;;;;;;-145.69;100.00;72978.69;5137777;27;20204;-77
2021/10/25 01:48:41;;;;;;;2.53;1.03;;;;;;;-145.69;100.00;72978.69;5137621;27;20220;-77
2021/10/25 01:51:08;;;;;;;4.20;1.20;;;;;;;-145.69;100.00;72986.63;5137285;27;20210;-77
2021/10/25 01:53:37;;;;;;;5.20;1.40;;;;;;;-145.69;100.00;72968.72;5137833;27;20204;-77
2021/10/25 01:56:08;;;;;;;1.53;1.10;;;;;;;-145.69;100.00;72954.78;5137617;27;20231;-77
2021/10/25 01:58:37;;;;;;;1.30;0.90;;;;;;;-145.69;100.00;72950.81;5137239;27;20658;-77
2021/10/25 02:01:04;;;;;;;2.77;1.20;;;;;;;-145.69;100.00;72954.78;5137293;27;20253;-77
2021/10/25 02:03:34;;;;;;;1.40;0.97;;;;;;;-145.69;100.00;72958.78;5137391;27;20239;-77
2021/10/25 02:06:05;;;;;;;1.57;1.00;;;;;;;-145.69;100.00;72954.78;5137182;27;20283;-77
2021/10/25 02:08:31;;;;;;;3.73;1.17;;;;;;;-145.69;100.00;72954.78;5137144;27;20232;-77
2021/10/25 02:10:58;;;;;;;3.20;1.37;;;;;;;-145.69;100.00;72940.84;5137291;27;20230;-77
2021/10/25 02:13:26;;;;;;;1.80;1.20;;;;;;;-145.69;100.00;72962.75;5137241;27;20208;-77
2021/10/25 02:15:53;;;;;;;1.17;1.00;;;;;;;-145.69;100.00;72964.75;5137080;27;20258;-76
2021/10/25 02:18:20;;;;;;;2.40;1.27;;;;;;;-145.69;100.00;72948.81;5137256;27;20250;-77
2021/10/25 02:20:47;;;;;;;4.70;1.40;;;;;;;-145.69;100.00;72934.88;5137106;27;20254;-77
2021/10/25 02:23:15;;;;;;;1.60;0.97;;;;;;;-145.69;100.00;72934.88;5136813;27;20232;-77
2021/10/25 02:25:41;;;;;;;1.33;1.10;;;;;;;-145.69;100.00;72932.91;5136615;27;20209;-76
2021/10/25 02:28:08;;;;;;;1.43;0.90;;;;;;;-145.69;100.00;72932.91;5139079;27;20586;-77
2021/10/25 02:30:35;;;;;;;2.00;1.10;;;;;;;-145.69;100.00;72938.88;5136760;27;20197;-77
2021/10/25 02:33:02;;;;;;;1.30;1.00;;;;;;;-145.69;100.00;72930.91;5135789;27;20193;-77
2021/10/25 02:35:30;;;;;;;2.13;1.17;;;;;;;-145.69;100.00;72922.94;5136861;27;20244;-77
2021/10/25 02:37:57;;;;;;;1.17;1.00;;;;;;;-145.69;100.00;72928.91;5136403;27;20197;-77
2021/10/25 02:40:25;;;;;;;1.27;1.17;;;;;;;-145.69;100.00;72920.94;5136913;27;20205;-77
2021/10/25 02:42:51;;;;;;;2.50;1.00;;;;;;;-145.69;100.00;72911.00;5136334;27;20208;-77
2021/10/25 02:45:18;;;;;;;1.20;0.90;;;;;;;-145.69;100.00;72914.97;5136260;27;20209;-77
2021/10/25 02:47:47;;;;;;;3.90;0.90;;;;;;;-145.69;100.00;72926.91;5136750;27;20196;-77
2021/10/25 02:50:14;;;;;;;2.60;1.00;;;;;;;-145.69;100.00;72918.97;5136224;27;20624;-77
2021/10/25 02:52:41;;;;;;;8.90;1.13;;;;;;;-145.69;100.00;72913.00;5135993;27;20889;-77
2021/10/25 02:55:09;;;;;;;1.33;1.00;;;;;;;-145.69;100.00;72909.00;5136433;27;20228;-77
2021/10/25 02:57:36;;;;;;;2.37;0.97;;;;;;;-145.69;100.00;72895.06;5135974;27;20222;-77
2021/10/25 03:00:11;;;;;;;1.93;1.10;;;;;;;-145.69;100.00;72895.06;5136161;27;20224;-77
2021/10/25 03:02:37;;;;;;;1.63;1.17;;;;;;;-145.69;100.00;72895.06;5136393;27;20196;-77
2021/10/25 03:05:06;;;;;;;1.80;0.90;;;;;;;-145.69;100.00;72889.09;5136052;27;20196;-77
2021/10/25 03:07:33;;;;;;;2.47;1.00;;;;;;;-145.69;100.00;72891.09;5135971;27;20200;-77
2021/10/25 03:10:00;;;;;;;1.47;0.87;;;;;;;-145.69;100.00;72883.13;5135689;27;20234;-77
2021/10/25 03:12:27;;;;;;;1.47;1.00;;;;;;;-145.69;100.00;72877.16;5135813;27;20528;-76
2021/10/25 03:14:54;;;;;;;2.00;1.10;;;;;;;-145.69;100.00;72889.09;5135880;27;20659;-77
2021/10/25 03:17:21;;;;;;;2.17;1.00;;;;;;;-145.69;100.00;72887.09;5135109;27;20430;-76
2021/10/25 03:19:47;;;;;;;4.10;1.13;;;;;;;-145.69;100.00;72883.13;5135773;27;20208;-77
2021/10/25 03:22:15;;;;;;;1.53;1.20;;;;;;;-145.69;100.00;72873.19;5135762;27;20206;-76
2021/10/25 03:24:44;;;;;;;2.20;1.23;;;;;;;-145.69;100.00;72857.25;5135360;27;20666;-77
2021/10/25 03:27:10;;;;;;;4.50;1.03;;;;;;;-145.69;100.00;72831.38;5135982;27;20200;-77
2021/10/25 03:29:37;;;;;;;0.83;0.83;;;;;;;-145.69;100.00;72835.34;5135803;27;20228;-76
2021/10/25 03:32:04;;;;;;;3.63;1.00;;;;;;;-145.69;100.00;72843.31;5135672;27;20216;-77
2021/10/25 03:34:31;;;;;;;1.20;1.10;;;;;;;-145.69;100.00;72857.25;5135323;27;20205;-76
2021/10/25 03:36:57;;;;;;;3.23;1.00;;;;;;;-145.69;100.00;72855.25;5135443;27;20201;-76
2021/10/25 03:39:33;;;;;;;7.87;1.00;;;;;;;-145.69;100.00;72869.19;5135162;27;20196;-77
2021/10/25 03:42:06;;;;;;;4.97;1.60;;;;;;;-145.69;100.00;72835.34;5135656;27;20249;-77
2021/10/25 03:44:38;;;;;;;4.13;1.30;;;;;;;-145.69;100.00;72847.28;5135308;27;20214;-77
2021/10/25 03:47:08;;;;;;;3.43;1.10;;;;;;;-145.69;100.00;72853.28;5134927;27;20675;-77
2021/10/25 03:49:39;;;;;;;1.93;1.17;;;;;;;-145.69;100.00;72849.28;5135095;27;20227;-77
2021/10/25 03:52:15;;;;;;;2.87;1.00;;;;;;;-145.69;100.00;72839.34;5135099;27;20228;-77
2021/10/25 03:54:48;;;;;;;3.53;1.00;;;;;;;-145.69;100.00;72833.38;5135367;27;20287;-77
2021/10/25 03:57:40;;;;;;;2.80;0.93;;;;;;;-145.69;100.00;72827.38;5134970;27;20227;-77
2021/10/25 04:00:35;;;;;;;0.80;0.70;;;;;;;-145.69;100.00;72807.47;5134969;27;20850;-77
2021/10/25 04:27:59;;;;;;;0.90;0.80;;;;;;;-145.69;100.00;72791.56;5116125;27;20245;-77
2021/10/25 04:30:29;;;;;;;2.13;0.77;;;;;;;-145.69;100.00;72781.59;5134349;27;20251;-76
2021/10/25 04:32:55;;;;;;;3.13;1.00;;;;;;;-145.69;99.56;72775.63;5134201;27;20586;-77
2021/10/25 04:35:24;;;;;;;2.03;0.93;;;;;;;-145.69;100.00;72773.66;5134334;27;20655;-76
2021/10/25 04:37:51;;;;;;;1.17;1.07;;;;;;;-145.69;100.00;72789.56;5136555;27;20196;-76
2021/10/25 04:40:17;;;;;;;1.10;0.83;;;;;;;-145.69;98.58;72759.72;5133927;27;20376;-76
2021/10/25 04:42:48;;;;;;;1.63;1.10;;;;;;;-145.69;100.00;72767.69;5134187;27;20204;-76
2021/10/25 04:45:18;;;;;;;1.53;1.03;;;;;;;-145.69;99.69;72747.78;5134363;27;20203;-76
2021/10/25 04:47:44;;;;;;;1.23;1.10;;;;;;;-145.69;99.78;72751.75;5134093;27;20200;-76
2021/10/25 04:50:11;;;;;;;3.23;1.20;;;;;;;-145.69;97.20;72743.78;5133575;27;20220;-76
2021/10/25 04:52:38;;;;;;;6.60;1.30;;;;;;;-145.69;97.19;72743.78;5133945;27;20241;-76
2021/10/25 04:55:05;;;;;;;1.67;0.97;;;;;;;-145.69;97.79;72741.78;5134174;27;20200;-76
2021/10/25 04:57:32;;;;;;;2.37;0.93;;;;;;;-145.69;95.74;72727.88;5133705;27;20253;-76
2021/10/25 05:00:00;;;;;;;1.33;1.00;;;;;;;-145.69;98.02;72739.81;5133607;27;20287;-76
2021/10/25 05:02:31;;;;;;;5.27;1.20;;;;;;;-145.69;95.10;72731.84;5134156;27;20295;-77
2021/10/25 05:04:57;;;;;;;5.83;1.23;;;;;;;-145.69;96.97;72733.84;5134156;27;20232;-76
2021/10/25 05:07:24;;;;;;;1.37;0.90;;;;;;;-145.69;97.02;72735.81;5134056;27;20197;-76
2021/10/25 05:09:50;;;;;;;3.73;1.20;;;;;;;-145.69;97.51;72735.81;5132330;27;20449;-76
2021/10/25 05:12:17;;;;;;;2.97;1.00;;;;;;;-145.69;98.18;72749.75;5133732;28;20437;-76
2021/10/25 05:14:44;;;;;;;1.87;0.87;;;;;;;-145.69;97.73;72739.81;5133862;28;20566;-76
2021/10/25 05:17:10;;;;;;;1.80;1.10;;;;;;;-145.69;95.92;72727.88;5133610;28;20192;-77
2021/10/25 05:19:42;;;;;;;1.60;1.03;;;;;;;-145.69;97.37;72719.91;5134039;28;20220;-77
2021/10/25 05:22:08;;;;;;;1.20;0.80;;;;;;;-145.69;96.08;72719.91;5133147;28;20722;-76
2021/10/25 05:24:35;;;;;;;1.87;1.17;;;;;;;-145.69;98.51;72719.91;5133647;28;20211;-76
2021/10/25 05:27:01;;;;;;;3.40;1.10;;;;;;;-145.69;97.79;72719.91;5133589;28;20197;-76
2021/10/25 05:29:28;;;;;;;1.83;1.10;;;;;;;-145.69;97.38;72719.91;5133326;28;20221;-76
2021/10/25 05:31:54;;;;;;;2.37;0.90;;;;;;;-145.69;96.78;72721.88;5134012;28;20650;-76
2021/10/25 05:34:23;;;;;;;2.23;1.20;;;;;;;-145.69;94.46;72711.94;5133597;28;20197;-77
2021/10/25 05:36:51;;;;;;;2.13;1.00;;;;;;;-145.69;94.64;72705.97;5133731;27;20204;-76
2021/10/25 05:39:18;;;;;;;2.43;1.07;;;;;;;-145.69;96.25;72713.94;5133822;27;20208;-76
2021/10/25 05:41:44;;;;;;;2.33;1.40;;;;;;;-145.69;97.08;72715.91;5133669;28;20196;-76
2021/10/25 05:44:13;;;;;;;2.90;1.20;;;;;;;-145.69;98.48;72731.84;5133178;28;20193;-77
2021/10/25 05:46:40;;;;;;;9.97;1.20;;;;;;;-145.69;98.79;72733.84;5133770;28;20207;-76
2021/10/25 05:49:07;;;;;;;2.37;1.40;;;;;;;-145.69;99.25;72721.88;5133481;28;20229;-77
2021/10/25 05:51:33;;;;;;;1.93;1.40;;;;;;;-145.69;98.36;72717.91;5133478;28;20628;-76
2021/10/25 05:54:05;;;;;;;3.73;1.10;;;;;;;-145.69;99.01;72715.91;5133325;28;20651;-76
2021/10/25 05:56:32;;;;;;;7.63;1.70;;;;;;;-145.69;98.80;72709.94;5133308;28;20258;-77
2021/10/25 05:58:59;;;;;;;1.50;0.90;;;;;;;-145.69;97.83;72719.91;5133265;28;20200;-77
2021/10/25 06:01:29;;;;;;;2.00;1.10;;;;;;;-145.69;99.39;72731.84;5133606;28;20201;-76
2021/10/25 06:04:03;;;;;;;2.27;1.10;;;;;;;-145.69;98.11;72739.81;5133485;28;20196;-77
2021/10/25 06:06:29;;;;;;;2.77;1.23;;;;;;;-145.69;98.71;72743.78;5133227;28;20215;-76
2021/10/25 06:08:56;;;;;;;2.47;1.33;;;;;;;-145.69;97.11;72735.81;5136959;27;20201;-75
2021/10/25 06:11:25;;;;;;;1.37;1.20;;;;;;;-145.69;99.17;72735.81;5137100;27;20201;-76
2021/10/25 06:13:54;;;;;;;3.43;1.23;;;;;;;-145.69;98.14;72733.84;5137296;27;20232;-76
2021/10/25 06:16:25;;;;;;;2.70;1.40;;;;;;;-145.69;97.67;72729.84;5137131;27;20208;-76
2021/10/25 06:18:54;;;;;;;3.77;1.20;;;;;;;-145.69;98.78;72739.81;5137055;27;20249;-77
2021/10/25 06:21:21;;;;;;;1.67;1.30;;;;;;;-145.69;100.00;72763.69;5136875;27;20196;-77
2021/10/25 06:23:48;;;;;;;1.77;1.10;;;;;;;-145.69;100.00;72775.63;5136735;27;20200;-76
2021/10/25 06:26:14;;;;;;;3.27;1.17;;;;;;;-145.69;98.60;72757.72;5137060;27;20249;-76
2021/10/25 06:28:42;;;;;;;2.93;1.40;;;;;;;-145.69;99.85;72763.69;5136792;27;20671;-77
2021/10/25 06:31:09;;;;;;;2.43;1.23;;;;;;;-145.69;99.39;72751.75;5136037;27;20228;-76
2021/10/25 06:33:42;;;;;;;2.30;1.43;;;;;;;-145.69;99.77;72753.75;5136815;27;20257;-76
2021/10/25 06:36:08;;;;;;;2.03;1.37;;;;;;;-145.69;100.00;72753.75;5136753;27;20246;-76
2021/10/25 06:38:38;;;;;;;2.90;1.40;;;;;;;-145.69;100.00;72767.69;5136569;27;20586;-77
2021/10/25 06:41:07;;;;;;;2.30;1.20;;;;;;;-145.69;100.00;72763.69;5136740;27;20201;-76
2021/10/25 06:43:36;;;;;;;3.23;1.70;;;;;;;-145.69;100.00;72751.75;5136353;27;20236;-77
2021/10/25 06:46:06;;;;;;;5.77;1.57;;;;;;;-145.69;99.64;72751.75;5138853;27;20200;-77
2021/10/25 06:48:32;;;;;;;1.73;1.30;;;;;;;-145.69;97.73;72735.81;5136359;27;20714;-76
2021/10/25 06:50:59;;;;;;;2.03;1.20;;;;;;;-145.69;99.29;72749.75;5136270;27;20710;-77
2021/10/25 06:53:25;;;;;;;4.43;1.50;;;;;;;-145.69;100.00;72747.78;5136328;27;20698;-76
2021/10/25 06:55:52;;;;;;;2.27;1.27;;;;;;;-145.69;100.00;72743.78;5136647;27;20197;-77
2021/10/25 06:58:24;;;;;;;3.57;1.23;;;;;;;-145.69;100.00;72745.78;5136395;27;20232;-77
2021/10/25 07:00:50;;;;;;;3.23;1.50;;;;;;;-145.69;100.00;72739.81;5136413;27;20683;-76
2021/10/25 07:03:18;;;;;;;4.17;1.77;;;;;;;-145.69;100.00;72709.94;5136626;27;20208;-77
2021/10/25 07:05:45;;;;;;;2.83;1.40;;;;;;;-145.69;98.76;72694.03;5136265;27;20694;-76
2021/10/25 07:08:14;;;;;;;1.63;1.10;;;;;;;-145.69;97.89;72682.09;5136195;27;20659;-77
2021/10/25 07:10:40;;;;;;;3.20;1.70;;;;;;;-145.69;98.91;72680.09;5136324;27;20231;-76
2021/10/25 07:13:10;;;;;;;1.67;1.40;;;;;;;-145.69;100.00;72660.19;5135951;27;20209;-76
2021/10/25 07:15:44;;;;;;;3.10;1.60;;;;;;;-145.69;100.00;72640.28;5136174;27;20197;-76
2021/10/25 07:18:14;;;;;;;3.03;1.50;;;;;;;-145.69;100.00;72624.34;5136151;27;20197;-76
2021/10/25 07:20:50;;;;;;;2.63;1.43;;;;;;;-145.69;100.00;72602.47;5135694;27;20197;-76
2021/10/25 07:23:38;;;;;;;2.37;1.50;;;;;;;-145.69;99.64;72582.56;5135953;27;20239;-76
2021/10/25 08:07:42;;;;;;;3.43;1.20;;;;;;;-145.69;80.59;72090.94;5116861;27;20195;-76
2021/10/25 08:10:13;;;;;;;2.77;1.40;;;;;;;-145.69;80.67;72043.19;5134411;27;20579;-76
2021/10/25 08:12:45;;;;;;;2.70;1.40;;;;;;;-145.69;79.89;71999.41;5135179;27;20200;-76
2021/10/25 08:15:19;;;;;;;4.20;2.80;;;;;;;-145.69;79.02;71953.63;5134975;27;20611;-77
2021/10/25 08:17:49;;;;;;;2.53;1.60;;;;;;;-145.69;78.40;71919.78;5134872;27;20201;-77
2021/10/25 08:20:15;;;;;;;5.40;1.33;;;;;;;-145.69;76.95;71891.94;5134405;27;20292;-76
2021/10/25 08:22:44;;;;;;;2.47;1.30;;;;;;;-145.69;78.10;71885.97;5134493;27;20192;-77
2021/10/25 08:25:15;;;;;;;3.40;1.05;;;;;;;-145.69;78.28;71887.94;5134419;27;20567;-77
2021/10/25 08:27:44;;;;;;;4.73;1.40;;;;;;;-145.69;79.51;71876.00;5134546;27;20558;-77
2021/10/25 08:30:19;;;;;;;1.30;0.90;;;;;;;-145.69;76.49;71931.72;5131599;27;20252;-77
2021/10/25 08:33:07;;;;;;;1.95;0.90;;;;;;;-145.69;73.65;71943.69;5134187;27;20621;-76
2021/10/25 08:35:50;;;;;;;1.92;1.20;;;;;;;-145.69;71.61;71939.69;5141132;27;20189;-76
2021/10/25 08:41:06;;;;;;;1.52;0.90;;;;;;;-145.69;76.65;71931.72;5134412;27;20670;-77
2021/10/25 08:43:33;;;;;;;2.13;0.90;;;;;;;-145.69;76.05;71933.72;5134137;27;20226;-77
2021/10/25 08:46:03;;;;;;;1.48;0.95;;;;;;;-145.69;77.58;71913.81;5134261;27;20282;-77
2021/10/25 08:48:30;;;;;;;1.90;0.90;;;;;;;-145.69;76.70;71876.00;5134091;27;20192;-76
2021/10/25 08:50:57;;;;;;;2.13;0.85;;;;;;;-145.69;75.77;71834.22;5134913;27;20236;-77
2021/10/25 08:53:23;;;;;;;2.50;0.98;;;;;;;-145.69;78.12;71814.31;5135595;27;20232;-77
2021/10/25 08:55:52;;;;;;;1.95;1.00;;;;;;;-145.69;78.87;71776.50;5148870;27;20202;-77
2021/10/25 08:58:20;;;;;;;3.58;1.02;;;;;;;-145.69;80.84;71758.59;5154742;27;20209;-77
2021/10/25 09:00:50;;;;;;;1.77;0.90;;;;;;;-145.69;81.50;71746.66;5154574;27;20527;-77
2021/10/25 09:03:21;;;;;;;1.80;0.98;;;;;;;-145.69;79.58;71712.81;5154732;27;20287;-77
2021/10/25 09:05:56;;;;;;;1.98;0.98;;;;;;;-145.69;73.84;71657.09;5154725;27;20196;-77
2021/10/25 09:08:23;;;;;;;2.38;1.08;;;;;;;-145.69;70.50;71605.38;5154373;27;20234;-78
2021/10/25 09:10:49;;;;;;;3.50;1.30;;;;;;;-145.69;68.84;71559.59;5154551;27;20223;-78
2021/10/25 09:13:18;;;;;;;3.30;1.92;;;;;;;-145.69;66.36;71529.75;5154393;27;20673;-78
2021/10/25 09:15:50;;;;;;;3.50;1.80;;;;;;;-145.69;64.79;71545.66;5154311;27;20199;-77
2021/10/25 09:18:18;;;;;;;3.90;1.92;;;;;;;-145.69;65.16;71501.88;5154609;27;20195;-77
2021/10/25 09:20:47;;;;;;;4.70;2.08;;;;;;;-145.69;66.78;71472.03;5154493;27;20203;-80
2021/10/25 09:23:15;;;;;;;4.75;1.95;;;;;;;-145.69;65.68;71525.78;5153932;27;20546;-78
2021/10/25 09:25:42;;;;;;;2.03;1.38;;;;;;;-145.69;67.03;71507.84;5154503;27;20286;-79
2021/10/25 09:28:15;;;;;;;3.47;1.98;;;;;;;-145.69;64.96;71456.13;5133746;27;20287;-80
2021/10/25 09:30:48;;;;;;;3.67;1.65;;;;;;;-145.69;64.52;71454.13;5133515;27;20224;-80
2021/10/25 09:33:20;;;;;;;5.53;2.15;;;;;;;-145.69;63.46;71404.38;5133560;28;20208;-80
2021/10/25 09:35:52;;;;;;;4.75;2.22;;;;;;;-145.69;64.29;71390.47;5133658;27;20201;-77
2021/10/25 09:38:28;;;;;;;3.85;1.70;;;;;;;-145.69;71.15;71466.06;5133789;28;20296;-78
2021/10/25 09:49:37;;;;;;;4.85;2.30;;;;;;;-145.69;68.67;71450.16;5137665;27;20199;-79
2021/10/25 09:52:08;;;;;;;7.93;3.00;;;;;;;-145.69;70.57;71503.88;5137005;27;20231;-78
2021/10/25 09:54:38;;;;;;;6.57;2.83;;;;;;;-145.69;68.91;71472.03;5137741;27;20301;-78
2021/10/25 09:57:12;;;;;;;4.63;2.80;;;;;;;-145.69;65.26;71464.09;5137513;27;20200;-77
2021/10/25 09:59:50;;;;;;;9.68;3.22;;;;;;;-145.69;62.96;71482.00;5137083;27;20201;-78
2021/10/25 10:02:20;;;;;;;7.88;3.80;;;;;;;-145.69;63.36;71487.97;5137135;27;20201;-77
2021/10/25 10:04:52;;;;;;;8.90;3.30;;;;;;;-145.69;63.36;71519.81;5137261;27;20197;-79
2021/10/25 10:07:19;;;;;;;7.80;3.60;;;;;;;-145.69;66.71;71553.63;5137380;27;20554;-79
2021/10/25 10:09:46;;;;;;;6.57;3.42;;;;;;;-145.69;62.39;71553.63;5136542;27;20562;-79
2021/10/25 10:12:19;;;;;;;4.70;2.47;;;;;;;-145.69;60.94;71577.50;5136786;27;20621;-78
2021/10/25 10:14:48;;;;;;;8.43;2.90;;;;;;;-145.69;59.42;71581.50;5137232;27;20300;-77
2021/10/25 10:17:24;;;;;;;12.40;4.05;;;;;;;-145.69;61.24;71581.50;5153785;27;20656;-79
2021/10/25 10:19:54;;;;;;;129.93;43.55;;;;;;;-145.69;61.74;71591.44;5157902;27;20196;-79
2021/10/25 10:22:23;;;;;;;10.15;5.70;;;;;;;-145.69;61.02;71573.53;5157898;27;20204;-78
2021/10/25 10:24:51;;;;;;;5.78;2.60;;;;;;;-145.69;61.41;71539.69;5157718;27;20204;-79
2021/10/25 10:27:22;;;;;;;4.47;2.20;;;;;;;-145.69;63.27;71515.81;5157594;27;20192;-79
2021/10/25 10:29:52;;;;;;;5.75;2.45;;;;;;;-145.69;57.37;71493.94;5157274;27;20245;-79
2021/10/25 10:32:23;;;;;;;2.90;1.58;;;;;;;-145.69;51.73;71501.88;5157578;27;20224;-79
2021/10/25 10:34:52;;;;;;;2.83;1.83;;;;;;;-145.69;51.99;71468.06;5157379;27;20658;-79
2021/10/25 10:37:22;;;;;;;3.47;1.23;;;;;;;-145.69;49.04;71462.09;5157208;27;20244;-79
2021/10/25 10:40:02;;;;;;;2.60;1.20;;;;;;;-145.69;46.53;71416.31;5157409;27;20196;-78
2021/10/25 10:42:30;;;;;;;3.05;1.33;;;;;;;-145.69;44.58;71416.31;5157546;27;20211;-78
2021/10/25 10:45:03;;;;;;;1.90;1.10;;;;;;;-145.69;46.87;71434.22;5157377;27;20223;-77
2021/10/25 10:47:38;;;;;;;1.13;0.82;;;;;;;-145.69;42.79;71434.22;5157347;27;20287;-80
2021/10/25 10:50:06;;;;;;;1.80;1.00;;;;;;;-145.69;46.88;71442.19;5144858;27;20223;-79
2021/10/25 10:52:35;;;;;;;2.25;1.20;;;;;;;-145.69;43.96;71432.25;5136019;27;20238;-79
2021/10/25 10:55:07;;;;;;;5.40;1.23;;;;;;;-145.69;45.31;71442.19;5135527;27;20203;-79
2021/10/25 11:00:30;;;;;;;3.25;1.10;;;;;;;-145.69;41.53;71464.09;5133190;27;20196;-79
2021/10/25 11:03:04;;;;;;;2.78;1.17;;;;;;;-145.69;45.09;71482.00;5136075;27;20193;-78
2021/10/25 11:05:33;;;;;;;4.10;1.10;;;;;;;-145.69;47.18;71511.84;5136405;27;20201;-78
2021/10/25 11:08:07;;;;;;;1.65;1.00;;;;;;;-145.69;48.19;71527.75;5136005;27;20677;-79
2021/10/25 11:10:34;;;;;;;5.15;1.70;;;;;;;-145.69;52.27;71537.72;5136132;27;20307;-78
2021/10/25 11:13:06;;;;;;;2.92;1.60;;;;;;;-145.69;53.84;71545.66;5136206;27;20204;-79
2021/10/25 11:15:37;;;;;;;4.05;1.83;;;;;;;-145.69;55.26;71545.66;5135773;27;20201;-79
2021/10/25 11:18:08;;;;;;;4.25;2.00;;;;;;;-145.69;61.54;71549.66;5135760;27;20203;-80
2021/10/25 11:20:36;;;;;;;4.10;2.15;;;;;;;-145.69;58.13;71545.66;5135802;27;20257;-79
2021/10/25 11:23:03;;;;;;;4.82;2.33;;;;;;;-145.69;64.19;71541.69;5135830;27;20651;-80
2021/10/25 11:25:38;;;;;;;3.53;1.85;;;;;;;-145.69;62.88;71525.78;5135971;27;20200;-80
2021/10/25 11:28:13;;;;;;;7.65;2.42;;;;;;;-145.69;60.77;71505.88;5135855;27;20200;-79
2021/10/25 11:30:39;;;;;;;12.48;2.17;;;;;;;-145.69;59.53;71478.00;5135739;27;20224;-80
2021/10/25 11:33:07;;;;;;;6.63;2.60;;;;;;;-145.69;62.60;71422.28;5135645;27;20208;-80
2021/10/25 11:35:34;;;;;;;5.78;2.08;;;;;;;-145.69;55.00;71420.31;5135734;27;20246;-80
2021/10/25 11:38:04;;;;;;;2.95;1.65;;;;;;;-145.69;53.02;71394.44;5135561;27;20207;-80
2021/10/25 11:40:31;;;;;;;5.90;1.85;;;;;;;-145.69;58.32;71346.69;5135412;27;20197;-80
2021/10/25 11:43:01;;;;;;;4.18;2.03;;;;;;;-145.69;53.08;71320.81;5135245;27;20199;-80
2021/10/25 11:45:30;;;;;;;5.50;2.47;;;;;;;-145.69;48.18;71285.00;5135197;27;20273;-80
2021/10/25 11:47:58;;;;;;;4.70;1.77;;;;;;;-145.69;48.45;71251.16;5135446;27;20200;-80
2021/10/25 11:50:30;;;;;;;5.90;1.70;;;;;;;-145.69;47.75;71195.47;5135366;27;20196;-80
2021/10/25 11:52:59;;;;;;;3.80;1.92;;;;;;;-145.69;44.78;71169.59;5134950;27;20715;-80
2021/10/25 11:55:31;;;;;;;4.18;1.90;;;;;;;-145.69;45.24;71161.63;5135460;27;20202;-80
2021/10/25 11:58:04;;;;;;;4.65;1.70;;;;;;;-145.69;46.03;71191.47;5135032;27;20642;-80
2021/10/25 12:00:34;;;;;;;3.33;1.60;;;;;;;-145.69;44.45;71265.09;5135235;27;20197;-80
2021/10/25 12:03:06;;;;;;;2.95;1.42;;;;;;;-145.69;45.57;71233.25;5135349;27;20192;-80
2021/10/25 12:05:34;;;;;;;4.40;1.55;;;;;;;-145.69;48.16;71283.00;5135035;27;20209;-80
2021/10/25 12:08:03;;;;;;;4.28;1.52;;;;;;;-145.69;46.05;71275.03;5134947;27;20651;-80
2021/10/25 12:10:34;;;;;;;4.15;1.30;;;;;;;-145.69;47.68;71328.78;5135032;27;20220;-79
2021/10/25 12:13:01;;;;;;;2.65;1.13;;;;;;;-145.69;47.31;71338.72;5135033;27;20201;-79
2021/10/25 12:15:32;;;;;;;2.08;1.38;;;;;;;-145.69;47.29;71362.59;5134971;27;20193;-77
2021/10/25 12:18:01;;;;;;;2.75;1.25;;;;;;;-145.69;46.34;71328.78;5134296;27;20651;-78
2021/10/25 12:20:32;;;;;;;2.42;1.20;;;;;;;-145.69;46.74;71314.84;5134948;27;20205;-78
2021/10/25 12:23:01;;;;;;;1.65;1.10;;;;;;;-145.69;46.86;71342.69;5134711;27;20226;-78
2021/10/25 12:25:29;;;;;;;3.17;1.25;;;;;;;-145.69;46.87;71340.72;5134616;27;20203;-78
2021/10/25 12:27:59;;;;;;;2.53;1.27;;;;;;;-145.69;48.16;71326.78;5134530;27;20196;-78
2021/10/25 12:30:28;;;;;;;2.45;1.10;;;;;;;-145.69;44.12;71322.81;5134232;27;20205;-78
2021/10/25 12:32:57;;;;;;;1.65;1.15;;;;;;;-145.69;43.92;71306.88;5134711;27;20281;-79
2021/10/25 12:35:35;;;;;;;2.50;1.10;;;;;;;-145.69;43.17;71310.84;5134546;27;20281;-78
2021/10/25 12:38:05;;;;;;;2.05;1.20;;;;;;;-145.69;46.82;71285.00;5134475;27;20207;-78
2021/10/25 12:40:38;;;;;;;2.30;1.35;;;;;;;-145.69;49.76;71271.06;5134413;27;20287;-79
2021/10/25 12:43:05;;;;;;;3.03;1.40;;;;;;;-145.69;44.39;71259.13;5134534;27;20200;-79